TimeEDT,TemperatureF,Dew PointF,Humidity,Sea Level PressureIn,VisibilityMPH,Wind Direction,Wind SpeedMPH,Gust SpeedMPH,PrecipitationIn,Events,Conditions,WindDirDegrees,DateUTC
12:53 AM,71.1,69.1,93,29.79,9.0,Calm,Calm,-,N/A,,Mostly Cloudy,0,2013-06-26 04:53:00
1:53 AM,71.1,69.1,93,29.78,10.0,Calm,Calm,-,0.00,,Mostly Cloudy,0,2013-06-26 05:53:00
2:53 AM,71.1,68.0,90,29.79,10.0,SW,3.5,-,N/A,,Overcast,230,2013-06-26 06:53:00
3:47 AM,69.8,68.0,94,29.80,7.0,West,4.6,-,0.03,Rain,Heavy Rain,270,2013-06-26 07:47:00
3:53 AM,70.0,68.0,93,29.79,4.0,West,6.9,-,0.07,Rain,Heavy Rain,270,2013-06-26 07:53:00
4:01 AM,69.1,66.9,93,29.80,4.0,West,6.9,-,0.05,Rain,Heavy Rain,280,2013-06-26 08:01:00
4:08 AM,69.1,66.9,93,29.80,3.0,West,6.9,-,0.13,Rain,Heavy Rain,270,2013-06-26 08:08:00
4:17 AM,69.1,68.0,96,29.80,2.0,WSW,3.5,-,0.25,Rain,Heavy Rain,250,2013-06-26 08:17:00
4:26 AM,69.1,68.0,96,29.80,3.0,WSW,5.8,-,0.36,Rain,Heavy Rain,240,2013-06-26 08:26:00
4:49 AM,69.8,66.2,88,29.80,5.0,WSW,5.8,-,0.55,Rain,Rain,250,2013-06-26 08:49:00
4:53 AM,69.1,66.9,93,29.79,6.0,West,6.9,-,0.56,Rain,Rain,260,2013-06-26 08:53:00
5:02 AM,69.1,66.9,93,29.80,6.0,West,5.8,-,0.03,Rain,Heavy Rain,270,2013-06-26 09:02:00
5:53 AM,69.1,66.9,93,29.80,9.0,WSW,4.6,-,0.05,Rain,Light Rain,250,2013-06-26 09:53:00
6:05 AM,68.0,66.9,96,29.81,10.0,West,5.8,-,0.00,Rain,Light Rain,260,2013-06-26 10:05:00
6:18 AM,69.1,66.9,93,29.82,10.0,West,4.6,-,0.00,Rain,Light Rain,270,2013-06-26 10:18:00
6:29 AM,68.0,66.9,96,29.82,6.0,West,3.5,-,0.01,Rain,Rain,270,2013-06-26 10:29:00
6:53 AM,69.1,66.9,93,29.81,7.0,West,5.8,-,0.03,Rain,Light Rain,260,2013-06-26 10:53:00
7:53 AM,69.1,66.9,93,29.82,10.0,WSW,6.9,-,0.01,,Overcast,240,2013-06-26 11:53:00
8:53 AM,70.0,68.0,93,29.83,10.0,WSW,5.8,-,0.00,Rain,Light Rain,250,2013-06-26 12:53:00
9:53 AM,70.0,68.0,93,29.82,6.0,WSW,4.6,-,0.11,Rain,Light Rain,240,2013-06-26 13:53:00
10:04 AM,70.0,68.0,93,29.83,10.0,SW,3.5,-,0.00,,Overcast,230,2013-06-26 14:04:00
10:53 AM,71.1,68.0,90,29.81,10.0,WSW,4.6,-,0.00,,Overcast,240,2013-06-26 14:53:00
11:53 AM,73.9,69.1,85,29.81,10.0,West,6.9,-,N/A,,Overcast,280,2013-06-26 15:53:00
12:00 PM,73.9,69.1,85,29.83,10.0,WSW,5.8,-,N/A,,Overcast,240,2013-06-26 16:00:00
12:25 PM,73.9,69.1,85,29.84,10.0,West,6.9,-,N/A,,Mostly Cloudy,270,2013-06-26 16:25:00
12:37 PM,75.0,68.0,79,29.84,10.0,West,9.2,-,N/A,,Mostly Cloudy,270,2013-06-26 16:37:00
12:53 PM,75.0,69.1,82,29.82,10.0,WNW,9.2,-,N/A,,Mostly Cloudy,290,2013-06-26 16:53:00
1:19 PM,78.1,70.0,76,29.83,10.0,West,8.1,-,N/A,,Mostly Cloudy,280,2013-06-26 17:19:00
1:53 PM,78.1,68.0,71,29.80,10.0,West,5.8,-,N/A,,Mostly Cloudy,260,2013-06-26 17:53:00
2:03 PM,79.0,68.0,69,29.81,10.0,West,6.9,-,N/A,,Scattered Clouds,270,2013-06-26 18:03:00
2:53 PM,81.0,66.9,62,29.80,10.0,WSW,10.4,-,N/A,,Partly Cloudy,250,2013-06-26 18:53:00
3:53 PM,81.0,64.0,56,29.79,10.0,West,9.2,-,N/A,,Clear,270,2013-06-26 19:53:00
4:53 PM,82.9,64.9,54,29.78,10.0,WSW,10.4,18.4,N/A,,Scattered Clouds,250,2013-06-26 20:53:00
5:53 PM,81.0,64.9,58,29.78,10.0,WSW,10.4,-,N/A,,Partly Cloudy,240,2013-06-26 21:53:00
6:53 PM,81.0,64.9,58,29.78,10.0,WSW,8.1,-,N/A,,Scattered Clouds,250,2013-06-26 22:53:00
7:53 PM,79.0,64.9,62,29.78,10.0,West,6.9,-,N/A,,Partly Cloudy,260,2013-06-26 23:53:00
8:53 PM,73.9,66.9,79,29.80,10.0,North,3.5,-,N/A,,Clear,350,2013-06-27 00:53:00
9:53 PM,69.1,66.9,93,29.80,10.0,SE,3.5,-,N/A,,Clear,140,2013-06-27 01:53:00
10:53 PM,68.0,64.9,90,29.81,10.0,East,3.5,-,N/A,,Clear,80,2013-06-27 02:53:00
11:53 PM,66.0,64.0,93,29.82,10.0,Calm,Calm,-,N/A,,Clear,0,2013-06-27 03:53:00